sensor_id;sensor_type;location;lat;lon;timestamp;pressure;altitude;pressure_sealevel;temperature;humidity
60228;BME280;46091;46.512;6.626;2023-04-30T00:01:07;96805.94;;;17.88;59.99
60228;BME280;46091;46.512;6.626;2023-04-30T00:03:10;96821.91;;;17.83;60.10
60228;BME280;46091;46.512;6.626;2023-04-30T00:05:13;96814.25;;;17.75;59.96
60228;BME280;46091;46.512;6.626;2023-04-30T00:07:16;96797.16;;;17.76;59.96
60228;BME280;46091;46.512;6.626;2023-04-30T00:09:19;96806.00;;;17.77;59.85
60228;BME280;46091;46.512;6.626;2023-04-30T00:11:22;96789.38;;;17.74;59.90
60228;BME280;46091;46.512;6.626;2023-04-30T00:13:27;96800.22;;;17.68;59.73
60228;BME280;46091;46.512;6.626;2023-04-30T00:15:30;96789.19;;;17.53;59.70
60228;BME280;46091;46.512;6.626;2023-04-30T00:17:33;96781.19;;;17.53;59.76
60228;BME280;46091;46.512;6.626;2023-04-30T00:19:36;96781.06;;;17.59;59.61
60228;BME280;46091;46.512;6.626;2023-04-30T00:21:38;96776.59;;;17.65;59.55
60228;BME280;46091;46.512;6.626;2023-04-30T00:23:41;96775.13;;;17.69;59.56
60228;BME280;46091;46.512;6.626;2023-04-30T00:25:44;96779.41;;;17.70;59.44
60228;BME280;46091;46.512;6.626;2023-04-30T00:27:48;96779.41;;;17.70;59.77
60228;BME280;46091;46.512;6.626;2023-04-30T00:29:52;96777.31;;;17.72;59.27
60228;BME280;46091;46.512;6.626;2023-04-30T00:31:55;96779.19;;;17.71;59.56
60228;BME280;46091;46.512;6.626;2023-04-30T00:33:58;96778.38;;;17.71;59.18
60228;BME280;46091;46.512;6.626;2023-04-30T00:36:01;96776.75;;;17.70;59.27
60228;BME280;46091;46.512;6.626;2023-04-30T00:38:04;96783.16;;;17.69;59.21
60228;BME280;46091;46.512;6.626;2023-04-30T00:40:08;96780.00;;;17.72;59.39
60228;BME280;46091;46.512;6.626;2023-04-30T00:42:11;96774.06;;;17.70;59.33
60228;BME280;46091;46.512;6.626;2023-04-30T00:44:14;96772.22;;;17.70;59.45
60228;BME280;46091;46.512;6.626;2023-04-30T00:46:18;96776.75;;;17.70;59.04
60228;BME280;46091;46.512;6.626;2023-04-30T00:48:21;96775.94;;;17.69;59.24
60228;BME280;46091;46.512;6.626;2023-04-30T00:50:24;96770.19;;;17.66;59.25
60228;BME280;46091;46.512;6.626;2023-04-30T00:52:28;96761.63;;;17.64;59.14
60228;BME280;46091;46.512;6.626;2023-04-30T00:54:31;96761.16;;;17.67;58.93
60228;BME280;46091;46.512;6.626;2023-04-30T00:56:34;96754.56;;;17.69;58.94
60228;BME280;46091;46.512;6.626;2023-04-30T00:58:36;96759.91;;;17.69;58.71
60228;BME280;46091;46.512;6.626;2023-04-30T01:00:40;96759.50;;;17.66;58.83
60228;BME280;46091;46.512;6.626;2023-04-30T01:02:49;96754.97;;;17.66;58.78
60228;BME280;46091;46.512;6.626;2023-04-30T01:04:52;96761.16;;;17.67;58.62
60228;BME280;46091;46.512;6.626;2023-04-30T01:06:55;96756.28;;;17.64;58.59
60228;BME280;46091;46.512;6.626;2023-04-30T01:08:59;96761.16;;;17.67;58.55
60228;BME280;46091;46.512;6.626;2023-04-30T01:11:10;96750.47;;;17.67;58.62
60228;BME280;46091;46.512;6.626;2023-04-30T01:13:22;96751.28;;;17.67;58.42
60228;BME280;46091;46.512;6.626;2023-04-30T01:15:33;96750.47;;;17.67;58.47
60228;BME280;46091;46.512;6.626;2023-04-30T01:17:43;96754.16;;;17.66;58.28
60228;BME280;46091;46.512;6.626;2023-04-30T01:19:49;96749.06;;;17.64;58.29
60228;BME280;46091;46.512;6.626;2023-04-30T01:21:53;96753.84;;;17.62;58.34
60228;BME280;46091;46.512;6.626;2023-04-30T01:24:12;96751.16;;;17.62;58.47
60228;BME280;46091;46.512;6.626;2023-04-30T01:26:26;96742.00;;;17.58;58.63
60228;BME280;46091;46.512;6.626;2023-04-30T01:28:34;96743.88;;;17.58;58.63
60228;BME280;46091;46.512;6.626;2023-04-30T01:30:38;96741.19;;;17.58;58.57
60228;BME280;46091;46.512;6.626;2023-04-30T01:32:42;96743.88;;;17.58;58.39
60228;BME280;46091;46.512;6.626;2023-04-30T01:34:45;96741.78;;;17.60;58.42
60228;BME280;46091;46.512;6.626;2023-04-30T01:36:54;96748.41;;;17.57;58.47
60228;BME280;46091;46.512;6.626;2023-04-30T01:39:14;96742.13;;;17.52;58.47
60228;BME280;46091;46.512;6.626;2023-04-30T01:41:27;96749.09;;;17.53;58.21
60228;BME280;46091;46.512;6.626;2023-04-30T01:43:39;96745.88;;;17.51;58.46
60228;BME280;46091;46.512;6.626;2023-04-30T01:45:57;96742.63;;;17.49;58.37
60228;BME280;46091;46.512;6.626;2023-04-30T01:48:13;96736.13;;;17.44;58.42
60228;BME280;46091;46.512;6.626;2023-04-30T01:50:26;96739.38;;;17.46;58.35
60228;BME280;46091;46.512;6.626;2023-04-30T01:52:39;96737.28;;;17.49;58.24
60228;BME280;46091;46.512;6.626;2023-04-30T01:54:47;96741.13;;;17.41;58.17
60228;BME280;46091;46.512;6.626;2023-04-30T01:56:59;96731.72;;;17.38;58.11
60228;BME280;46091;46.512;6.626;2023-04-30T01:59:06;96745.56;;;17.35;57.86
60228;BME280;46091;46.512;6.626;2023-04-30T02:01:24;96744.41;;;17.31;57.96
60228;BME280;46091;46.512;6.626;2023-04-30T02:03:27;96738.50;;;17.29;58.04
60228;BME280;46091;46.512;6.626;2023-04-30T02:05:30;96743.84;;;17.29;57.93
60228;BME280;46091;46.512;6.626;2023-04-30T02:07:38;96738.97;;;17.26;58.18
60228;BME280;46091;46.512;6.626;2023-04-30T02:09:41;96743.84;;;17.29;58.14
60228;BME280;46091;46.512;6.626;2023-04-30T02:11:44;96738.00;;;17.32;57.94
60228;BME280;46091;46.512;6.626;2023-04-30T02:13:47;96740.22;;;17.35;57.99
60228;BME280;46091;46.512;6.626;2023-04-30T02:15:51;96743.47;;;17.37;57.88
60228;BME280;46091;46.512;6.626;2023-04-30T02:17:54;96739.75;;;17.38;57.93
60228;BME280;46091;46.512;6.626;2023-04-30T02:19:57;96746.16;;;17.37;57.82
60228;BME280;46091;46.512;6.626;2023-04-30T02:22:00;96735.94;;;17.34;57.81
60228;BME280;46091;46.512;6.626;2023-04-30T02:24:03;96731.72;;;17.38;57.91
60228;BME280;46091;46.512;6.626;2023-04-30T02:26:06;96728.00;;;17.39;57.89
60228;BME280;46091;46.512;6.626;2023-04-30T02:28:09;96732.88;;;17.42;57.77
60228;BME280;46091;46.512;6.626;2023-04-30T02:30:12;96731.25;;;17.41;57.69
60228;BME280;46091;46.512;6.626;2023-04-30T02:32:16;96723.81;;;17.43;57.81
60228;BME280;46091;46.512;6.626;2023-04-30T02:34:19;96728.94;;;17.45;57.67
60228;BME280;46091;46.512;6.626;2023-04-30T02:36:22;96732.63;;;17.44;57.78
60228;BME280;46091;46.512;6.626;2023-04-30T02:38:25;96736.34;;;17.43;57.86
60228;BME280;46091;46.512;6.626;2023-04-30T02:40:28;96734.28;;;17.45;57.94
60228;BME280;46091;46.512;6.626;2023-04-30T02:42:30;96727.88;;;17.46;57.82
60228;BME280;46091;46.512;6.626;2023-04-30T02:44:33;96730.88;;;17.50;57.64
60228;BME280;46091;46.512;6.626;2023-04-30T02:46:36;96735.16;;;17.51;57.67
60228;BME280;46091;46.512;6.626;2023-04-30T02:48:40;96733.56;;;17.50;57.75
60228;BME280;46091;46.512;6.626;2023-04-30T02:50:43;96723.69;;;17.50;57.75
60228;BME280;46091;46.512;6.626;2023-04-30T02:52:46;96726.09;;;17.52;57.71
60228;BME280;46091;46.512;6.626;2023-04-30T02:54:49;96729.81;;;17.51;57.79
60228;BME280;46091;46.512;6.626;2023-04-30T02:56:52;96724.47;;;17.51;57.60
60228;BME280;46091;46.512;6.626;2023-04-30T02:58:55;96729.81;;;17.51;57.84
60228;BME280;46091;46.512;6.626;2023-04-30T03:00:58;96721.81;;;17.51;57.78
60228;BME280;46091;46.512;6.626;2023-04-30T03:03:01;96726.09;;;17.52;57.74
60228;BME280;46091;46.512;6.626;2023-04-30T03:05:06;96728.22;;;17.50;57.76
60228;BME280;46091;46.512;6.626;2023-04-30T03:07:09;96729.81;;;17.51;57.86
60228;BME280;46091;46.512;6.626;2023-04-30T03:09:12;96722.88;;;17.50;57.71
60228;BME280;46091;46.512;6.626;2023-04-30T03:11:15;96726.34;;;17.50;57.80
60228;BME280;46091;46.512;6.626;2023-04-30T03:13:18;96723.44;;;17.52;57.63
60228;BME280;46091;46.512;6.626;2023-04-30T03:15:21;96718.91;;;17.52;57.85
60228;BME280;46091;46.512;6.626;2023-04-30T03:17:24;96718.09;;;17.52;57.96
60228;BME280;46091;46.512;6.626;2023-04-30T03:19:27;96715.16;;;17.53;57.77
60228;BME280;46091;46.512;6.626;2023-04-30T03:21:31;96723.19;;;17.53;57.89
60228;BME280;46091;46.512;6.626;2023-04-30T03:23:34;96717.84;;;17.53;57.98
60228;BME280;46091;46.512;6.626;2023-04-30T03:25:37;96721.31;;;17.54;57.99
60228;BME280;46091;46.512;6.626;2023-04-30T03:27:40;96715.97;;;17.54;57.86
60228;BME280;46091;46.512;6.626;2023-04-30T03:29:43;96720.50;;;17.53;57.86
60228;BME280;46091;46.512;6.626;2023-04-30T03:31:45;96715.97;;;17.54;57.85
60228;BME280;46091;46.512;6.626;2023-04-30T03:33:48;96714.13;;;17.54;57.80
60228;BME280;46091;46.512;6.626;2023-04-30T03:35:51;96711.22;;;17.56;57.79
60228;BME280;46091;46.512;6.626;2023-04-30T03:37:55;96707.97;;;17.54;57.81
60228;BME280;46091;46.512;6.626;2023-04-30T03:39:58;96710.88;;;17.52;57.82
60228;BME280;46091;46.512;6.626;2023-04-30T03:42:01;96713.78;;;17.51;57.83
60228;BME280;46091;46.512;6.626;2023-04-30T03:44:04;96716.22;;;17.52;57.94
60228;BME280;46091;46.512;6.626;2023-04-30T03:46:09;96717.03;;;17.53;57.81
60228;BME280;46091;46.512;6.626;2023-04-30T03:48:14;96719.69;;;17.53;57.70
60228;BME280;46091;46.512;6.626;2023-04-30T03:50:18;96717.28;;;17.51;57.71
60228;BME280;46091;46.512;6.626;2023-04-30T03:52:20;96717.03;;;17.53;57.72
60228;BME280;46091;46.512;6.626;2023-04-30T03:54:25;96724.25;;;17.52;57.53
60228;BME280;46091;46.512;6.626;2023-04-30T03:56:27;96724.47;;;17.51;57.51
60228;BME280;46091;46.512;6.626;2023-04-30T03:58:30;96724.47;;;17.51;57.76
60228;BME280;46091;46.512;6.626;2023-04-30T04:00:33;96723.91;;;17.49;57.69
60228;BME280;46091;46.512;6.626;2023-04-30T04:02:36;96724.72;;;17.49;57.76
60228;BME280;46091;46.512;6.626;2023-04-30T04:04:39;96727.16;;;17.51;57.54
60228;BME280;46091;46.512;6.626;2023-04-30T04:06:42;96735.16;;;17.51;57.59
60228;BME280;46091;46.512;6.626;2023-04-30T04:08:45;96735.16;;;17.51;57.73
60228;BME280;46091;46.512;6.626;2023-04-30T04:10:49;96737.84;;;17.51;57.62
60228;BME280;46091;46.512;6.626;2023-04-30T04:12:52;96735.97;;;17.51;57.65
60228;BME280;46091;46.512;6.626;2023-04-30T04:14:55;96738.41;;;17.53;57.56
60228;BME280;46091;46.512;6.626;2023-04-30T04:16:58;96746.44;;;17.53;57.47
60228;BME280;46091;46.512;6.626;2023-04-30T04:19:01;96740.53;;;17.51;57.61
60228;BME280;46091;46.512;6.626;2023-04-30T04:21:05;96745.88;;;17.51;57.75
60228;BME280;46091;46.512;6.626;2023-04-30T04:23:08;96750.16;;;17.52;57.63
60228;BME280;46091;46.512;6.626;2023-04-30T04:25:11;96754.44;;;17.53;57.70
60228;BME280;46091;46.512;6.626;2023-04-30T04:27:15;96752.84;;;17.52;57.45
60228;BME280;46091;46.512;6.626;2023-04-30T04:29:19;96745.88;;;17.51;57.78
60228;BME280;46091;46.512;6.626;2023-04-30T04:31:22;96744.25;;;17.50;57.60
60228;BME280;46091;46.512;6.626;2023-04-30T04:33:24;96749.59;;;17.50;57.77
60228;BME280;46091;46.512;6.626;2023-04-30T04:35:28;96743.44;;;17.49;57.86
60228;BME280;46091;46.512;6.626;2023-04-30T04:37:31;96744.50;;;17.48;57.86
60228;BME280;46091;46.512;6.626;2023-04-30T04:39:34;96749.84;;;17.48;57.47
60228;BME280;46091;46.512;6.626;2023-04-30T04:41:38;96749.84;;;17.48;57.45
60228;BME280;46091;46.512;6.626;2023-04-30T04:43:43;96743.44;;;17.49;57.62
60228;BME280;46091;46.512;6.626;2023-04-30T04:45:46;96742.06;;;17.46;57.62
60228;BME280;46091;46.512;6.626;2023-04-30T04:47:49;96752.25;;;17.50;57.71
60228;BME280;46091;46.512;6.626;2023-04-30T04:49:52;96746.91;;;17.50;57.68
60228;BME280;46091;46.512;6.626;2023-04-30T04:51:56;96758.19;;;17.52;57.50
60228;BME280;46091;46.512;6.626;2023-04-30T04:53:58;96760.84;;;17.52;57.77
60228;BME280;46091;46.512;6.626;2023-04-30T04:56:01;96763.53;;;17.52;57.61
60228;BME280;46091;46.512;6.626;2023-04-30T04:58:04;96756.56;;;17.51;57.52
60228;BME280;46091;46.512;6.626;2023-04-30T05:00:09;96761.66;;;17.52;57.50
60228;BME280;46091;46.512;6.626;2023-04-30T05:02:13;96762.72;;;17.51;57.30
60228;BME280;46091;46.512;6.626;2023-04-30T05:04:16;96769.91;;;17.51;57.64
60228;BME280;46091;46.512;6.626;2023-04-30T05:06:19;96766.91;;;17.47;57.66
60228;BME280;46091;46.512;6.626;2023-04-30T05:08:22;96770.41;;;17.48;57.77
60228;BME280;46091;46.512;6.626;2023-04-30T05:10:25;96769.09;;;17.50;57.68
60228;BME280;46091;46.512;6.626;2023-04-30T05:12:28;96769.09;;;17.50;57.85
60228;BME280;46091;46.512;6.626;2023-04-30T05:14:30;96769.69;;;17.52;57.83
60228;BME280;46091;46.512;6.626;2023-04-30T05:16:35;96765.13;;;17.53;57.64
60228;BME280;46091;46.512;6.626;2023-04-30T05:18:39;96767.81;;;17.53;57.53
60228;BME280;46091;46.512;6.626;2023-04-30T05:20:42;96767.81;;;17.53;57.64
60228;BME280;46091;46.512;6.626;2023-04-30T05:22:44;96770.50;;;17.53;57.50
60228;BME280;46091;46.512;6.626;2023-04-30T05:24:47;96765.72;;;17.55;57.65
60228;BME280;46091;46.512;6.626;2023-04-30T05:26:53;96764.69;;;17.56;57.58
60228;BME280;46091;46.512;6.626;2023-04-30T05:28:56;96763.84;;;17.55;57.63
60228;BME280;46091;46.512;6.626;2023-04-30T05:30:59;96763.03;;;17.55;57.53
60228;BME280;46091;46.512;6.626;2023-04-30T05:33:03;96766.31;;;17.57;57.64
60228;BME280;46091;46.512;6.626;2023-04-30T05:35:06;96774.31;;;17.57;57.54
60228;BME280;46091;46.512;6.626;2023-04-30T05:37:09;96764.44;;;17.57;57.45
60228;BME280;46091;46.512;6.626;2023-04-30T05:39:13;96762.09;;;17.61;57.53
60228;BME280;46091;46.512;6.626;2023-04-30T05:41:15;96764.53;;;17.62;57.55
60228;BME280;46091;46.512;6.626;2023-04-30T05:43:18;96765.34;;;17.63;57.39
60228;BME280;46091;46.512;6.626;2023-04-30T05:45:21;96772.31;;;17.64;57.32
60228;BME280;46091;46.512;6.626;2023-04-30T05:47:24;96768.81;;;17.63;57.64
60228;BME280;46091;46.512;6.626;2023-04-30T05:49:28;96768.81;;;17.63;57.41
60228;BME280;46091;46.512;6.626;2023-04-30T05:51:33;96773.34;;;17.63;57.52
60228;BME280;46091;46.512;6.626;2023-04-30T05:53:36;96767.44;;;17.61;57.52
60228;BME280;46091;46.512;6.626;2023-04-30T05:55:39;96772.56;;;17.62;57.82
60228;BME280;46091;46.512;6.626;2023-04-30T05:57:42;96763.72;;;17.62;57.51
60228;BME280;46091;46.512;6.626;2023-04-30T05:59:45;96769.78;;;17.57;57.78
60228;BME280;46091;46.512;6.626;2023-04-30T06:01:48;96766.31;;;17.57;57.69
60228;BME280;46091;46.512;6.626;2023-04-30T06:03:51;96758.84;;;17.59;57.58
60228;BME280;46091;46.512;6.626;2023-04-30T06:05:55;96762.09;;;17.61;57.50
60228;BME280;46091;46.512;6.626;2023-04-30T06:07:58;96767.44;;;17.61;57.58
60228;BME280;46091;46.512;6.626;2023-04-30T06:10:01;96761.03;;;17.62;57.65
60228;BME280;46091;46.512;6.626;2023-04-30T06:12:04;96773.34;;;17.63;57.42
60228;BME280;46091;46.512;6.626;2023-04-30T06:14:07;96770.19;;;17.66;57.45
60228;BME280;46091;46.512;6.626;2023-04-30T06:16:10;96768.94;;;17.68;57.33
60228;BME280;46091;46.512;6.626;2023-04-30T06:18:12;96771.41;;;17.70;57.17
60228;BME280;46091;46.512;6.626;2023-04-30T06:20:16;96773.84;;;17.71;57.29
60228;BME280;46091;46.512;6.626;2023-04-30T06:22:20;96773.84;;;17.71;57.09
60228;BME280;46091;46.512;6.626;2023-04-30T06:24:22;96778.38;;;17.71;57.27
60228;BME280;46091;46.512;6.626;2023-04-30T06:26:28;96775.22;;;17.74;57.27
60228;BME280;46091;46.512;6.626;2023-04-30T06:28:31;96770.19;;;17.78;57.15
60228;BME280;46091;46.512;6.626;2023-04-30T06:30:36;96783.34;;;17.79;57.27
60228;BME280;46091;46.512;6.626;2023-04-30T06:32:38;96778.00;;;17.79;57.26
60228;BME280;46091;46.512;6.626;2023-04-30T06:34:41;96773.22;;;17.81;57.07
60228;BME280;46091;46.512;6.626;2023-04-30T06:36:44;96775.06;;;17.81;57.09
60228;BME280;46091;46.512;6.626;2023-04-30T06:38:48;96787.41;;;17.82;57.14
60228;BME280;46091;46.512;6.626;2023-04-30T06:40:51;96782.84;;;17.82;57.25
60228;BME280;46091;46.512;6.626;2023-04-30T06:42:54;96785.28;;;17.84;57.14
60228;BME280;46091;46.512;6.626;2023-04-30T06:44:57;96782.38;;;17.85;57.12
60228;BME280;46091;46.512;6.626;2023-04-30T06:47:00;96781.31;;;17.86;57.08
60228;BME280;46091;46.512;6.626;2023-04-30T06:49:03;96780.03;;;17.89;57.16
60228;BME280;46091;46.512;6.626;2023-04-30T06:51:05;96780.63;;;17.91;57.08
60228;BME280;46091;46.512;6.626;2023-04-30T06:53:11;96780.63;;;17.91;57.16
60228;BME280;46091;46.512;6.626;2023-04-30T06:55:15;96775.03;;;17.92;57.02
60228;BME280;46091;46.512;6.626;2023-04-30T06:57:18;96765.94;;;17.93;57.20
60228;BME280;46091;46.512;6.626;2023-04-30T06:59:21;96774.53;;;17.95;56.98
60228;BME280;46091;46.512;6.626;2023-04-30T07:01:24;96771.94;;;18.00;56.96
60228;BME280;46091;46.512;6.626;2023-04-30T07:03:26;96773.59;;;18.01;56.96
60228;BME280;46091;46.512;6.626;2023-04-30T07:05:30;96772.28;;;18.04;56.87
60228;BME280;46091;46.512;6.626;2023-04-30T07:07:33;96766.44;;;18.07;56.84
60228;BME280;46091;46.512;6.626;2023-04-30T07:09:35;96771.56;;;18.09;56.76
60228;BME280;46091;46.512;6.626;2023-04-30T07:11:39;96768.88;;;18.09;56.98
60228;BME280;46091;46.512;6.626;2023-04-30T07:13:43;96769.22;;;18.12;56.90
60228;BME280;46091;46.512;6.626;2023-04-30T07:15:46;96773.84;;;18.17;56.83
60228;BME280;46091;46.512;6.626;2023-04-30T07:17:49;96774.97;;;18.21;56.88
60228;BME280;46091;46.512;6.626;2023-04-30T07:19:54;96781.72;;;18.23;56.72
60228;BME280;46091;46.512;6.626;2023-04-30T07:21:57;96783.00;;;18.21;56.72
60228;BME280;46091;46.512;6.626;2023-04-30T07:24:00;96777.66;;;18.21;56.70
60228;BME280;46091;46.512;6.626;2023-04-30T07:26:03;96776.03;;;18.20;56.68
60228;BME280;46091;46.512;6.626;2023-04-30T07:28:08;96779.28;;;18.22;56.78
60228;BME280;46091;46.512;6.626;2023-04-30T07:30:11;96780.56;;;18.19;56.87
60228;BME280;46091;46.512;6.626;2023-04-30T07:32:14;96782.38;;;18.14;56.84
60228;BME280;46091;46.512;6.626;2023-04-30T07:34:17;96783.41;;;18.13;56.83
60228;BME280;46091;46.512;6.626;2023-04-30T07:36:20;96779.34;;;18.10;56.93
60228;BME280;46091;46.512;6.626;2023-04-30T07:38:23;96781.44;;;18.08;56.96
60228;BME280;46091;46.512;6.626;2023-04-30T07:40:26;96779.59;;;18.09;56.91
60228;BME280;46091;46.512;6.626;2023-04-30T07:42:37;96774.22;;;18.09;56.84
60228;BME280;46091;46.512;6.626;2023-04-30T07:44:41;96784.94;;;18.09;56.94
60228;BME280;46091;46.512;6.626;2023-04-30T07:46:44;96784.44;;;18.12;57.08
60228;BME280;46091;46.512;6.626;2023-04-30T07:48:47;96779.69;;;18.14;57.03
60228;BME280;46091;46.512;6.626;2023-04-30T07:50:50;96770.84;;;18.13;56.91
60228;BME280;46091;46.512;6.626;2023-04-30T07:52:53;96777.00;;;18.14;56.85
60228;BME280;46091;46.512;6.626;2023-04-30T07:54:56;96779.69;;;18.14;56.95
60228;BME280;46091;46.512;6.626;2023-04-30T07:56:59;96778.06;;;18.13;56.69
60228;BME280;46091;46.512;6.626;2023-04-30T07:59:02;96770.84;;;18.13;56.82
60228;BME280;46091;46.512;6.626;2023-04-30T08:01:06;96769.22;;;18.12;56.73
60228;BME280;46091;46.512;6.626;2023-04-30T08:03:09;96782.38;;;18.14;56.85
60228;BME280;46091;46.512;6.626;2023-04-30T08:05:12;96767.94;;;18.15;56.83
60228;BME280;46091;46.512;6.626;2023-04-30T08:07:15;96766.63;;;18.17;56.78
60228;BME280;46091;46.512;6.626;2023-04-30T08:09:18;96767.44;;;18.18;56.80
60228;BME280;46091;46.512;6.626;2023-04-30T08:11:21;96766.13;;;18.20;56.69
60228;BME280;46091;46.512;6.626;2023-04-30T08:13:24;96764.84;;;18.23;56.70
60228;BME280;46091;46.512;6.626;2023-04-30T08:15:27;96772.97;;;18.28;56.59
60228;BME280;46091;46.512;6.626;2023-04-30T08:17:33;96767.63;;;18.28;56.39
60228;BME280;46091;46.512;6.626;2023-04-30T08:19:36;96774.59;;;18.29;56.60
60228;BME280;46091;46.512;6.626;2023-04-30T08:21:39;96775.41;;;18.29;56.58
60228;BME280;46091;46.512;6.626;2023-04-30T08:23:42;96773.28;;;18.31;56.35
60228;BME280;46091;46.512;6.626;2023-04-30T08:25:45;96771.53;;;18.37;56.36
60228;BME280;46091;46.512;6.626;2023-04-30T08:27:48;96768.91;;;18.42;56.52
60228;BME280;46091;46.512;6.626;2023-04-30T08:29:50;96772.75;;;18.46;56.02
60228;BME280;46091;46.512;6.626;2023-04-30T08:31:54;96775.41;;;18.46;56.21
60228;BME280;46091;46.512;6.626;2023-04-30T08:33:58;96774.38;;;18.47;56.10
60228;BME280;46091;46.512;6.626;2023-04-30T08:36:01;96786.13;;;18.46;56.43
60228;BME280;46091;46.512;6.626;2023-04-30T08:38:04;96785.06;;;18.47;56.27
60228;BME280;46091;46.512;6.626;2023-04-30T08:40:08;96784.81;;;18.49;56.43
60228;BME280;46091;46.512;6.626;2023-04-30T08:42:13;96782.72;;;18.51;56.08
60228;BME280;46091;46.512;6.626;2023-04-30T08:44:17;96782.22;;;18.54;56.07
60228;BME280;46091;46.512;6.626;2023-04-30T08:46:23;96785.22;;;18.57;55.98
60228;BME280;46091;46.512;6.626;2023-04-30T08:48:27;96788.13;;;18.56;56.01
60228;BME280;46091;46.512;6.626;2023-04-30T08:50:32;96788.13;;;18.56;55.90
60228;BME280;46091;46.512;6.626;2023-04-30T08:52:36;96793.25;;;18.57;55.93
60228;BME280;46091;46.512;6.626;2023-04-30T08:54:41;96794.88;;;18.58;56.03
60228;BME280;46091;46.512;6.626;2023-04-30T08:56:46;96797.88;;;18.62;56.03
60228;BME280;46091;46.512;6.626;2023-04-30T08:58:49;96795.53;;;18.66;56.01
60228;BME280;46091;46.512;6.626;2023-04-30T09:00:52;96793.94;;;18.65;56.05
60228;BME280;46091;46.512;6.626;2023-04-30T09:02:55;96795.28;;;18.67;55.88
60228;BME280;46091;46.512;6.626;2023-04-30T09:04:58;96792.28;;;18.63;55.54
60228;BME280;46091;46.512;6.626;2023-04-30T09:07:02;96792.78;;;18.60;55.88
60228;BME280;46091;46.512;6.626;2023-04-30T09:09:11;96792.78;;;18.60;55.89
60228;BME280;46091;46.512;6.626;2023-04-30T09:11:24;96797.63;;;18.63;55.67
60228;BME280;46091;46.512;6.626;2023-04-30T09:13:39;96799.03;;;18.66;55.69
60228;BME280;46091;46.512;6.626;2023-04-30T09:15:42;96799.38;;;18.70;55.36
60228;BME280;46091;46.512;6.626;2023-04-30T09:17:46;96794.25;;;18.68;55.40
60228;BME280;46091;46.512;6.626;2023-04-30T09:19:49;96797.97;;;18.67;55.34
60228;BME280;46091;46.512;6.626;2023-04-30T09:21:52;96799.38;;;18.70;55.34
60228;BME280;46091;46.512;6.626;2023-04-30T09:23:58;96801.56;;;18.73;55.24
60228;BME280;46091;46.512;6.626;2023-04-30T09:26:02;96798.94;;;18.78;55.60
60228;BME280;46091;46.512;6.626;2023-04-30T09:28:08;96797.41;;;18.82;55.39
60228;BME280;46091;46.512;6.626;2023-04-30T09:30:29;96794.81;;;18.87;55.52
60228;BME280;46091;46.512;6.626;2023-04-30T09:32:32;96794.56;;;18.88;55.25
60228;BME280;46091;46.512;6.626;2023-04-30T09:34:35;96792.44;;;18.90;55.24
60228;BME280;46091;46.512;6.626;2023-04-30T09:36:51;96794.41;;;18.95;55.27
60228;BME280;46091;46.512;6.626;2023-04-30T09:39:03;96803.56;;;18.99;55.09
60228;BME280;46091;46.512;6.626;2023-04-30T09:41:23;96798.28;;;19.04;55.08
60228;BME280;46091;46.512;6.626;2023-04-30T09:43:26;96805.25;;;19.05;54.96
60228;BME280;46091;46.512;6.626;2023-04-30T09:45:39;96813.84;;;19.07;54.70
60228;BME280;46091;46.512;6.626;2023-04-30T09:47:43;96809.06;;;19.09;55.03
60228;BME280;46091;46.512;6.626;2023-04-30T09:49:47;96808.00;;;19.10;55.11
60228;BME280;46091;46.512;6.626;2023-04-30T09:51:54;96808.00;;;19.10;54.99
60228;BME280;46091;46.512;6.626;2023-04-30T09:54:02;96802.06;;;19.08;55.08
60228;BME280;46091;46.512;6.626;2023-04-30T09:56:06;96808.00;;;19.10;55.13
60228;BME280;46091;46.512;6.626;2023-04-30T09:58:10;96803.13;;;19.07;55.19
60228;BME280;46091;46.512;6.626;2023-04-30T10:00:14;96807.38;;;19.03;55.19
60228;BME280;46091;46.512;6.626;2023-04-30T10:02:18;96809.97;;;18.98;54.94
60228;BME280;46091;46.512;6.626;2023-04-30T10:04:25;96812.00;;;18.91;54.97
60228;BME280;46091;46.512;6.626;2023-04-30T10:06:29;96802.34;;;18.90;54.87
60228;BME280;46091;46.512;6.626;2023-04-30T10:08:39;96806.06;;;18.89;54.80
60228;BME280;46091;46.512;6.626;2023-04-30T10:10:46;96800.09;;;18.82;54.89
60228;BME280;46091;46.512;6.626;2023-04-30T10:12:53;96806.50;;;18.81;55.14
60228;BME280;46091;46.512;6.626;2023-04-30T10:15:04;96810.22;;;18.80;55.16
60228;BME280;46091;46.512;6.626;2023-04-30T10:17:12;96803.84;;;18.81;54.81
60228;BME280;46091;46.512;6.626;2023-04-30T10:19:18;96807.63;;;18.85;55.00
60228;BME280;46091;46.512;6.626;2023-04-30T10:21:23;96811.38;;;18.84;54.83
60228;BME280;46091;46.512;6.626;2023-04-30T10:23:28;96810.31;;;18.85;55.24
60228;BME280;46091;46.512;6.626;2023-04-30T10:25:31;96810.63;;;18.88;54.84
60228;BME280;46091;46.512;6.626;2023-04-30T10:27:36;96803.97;;;18.91;54.81
60228;BME280;46091;46.512;6.626;2023-04-30T10:29:39;96804.31;;;18.95;54.94
60228;BME280;46091;46.512;6.626;2023-04-30T10:31:44;96805.41;;;18.99;54.92
60228;BME280;46091;46.512;6.626;2023-04-30T10:33:53;96802.25;;;19.02;54.80
60228;BME280;46091;46.512;6.626;2023-04-30T10:36:02;96805.72;;;19.02;54.87
60228;BME280;46091;46.512;6.626;2023-04-30T10:38:11;96804.09;;;19.01;54.84
60228;BME280;46091;46.512;6.626;2023-04-30T10:40:14;96804.09;;;19.01;54.81
60228;BME280;46091;46.512;6.626;2023-04-30T10:42:17;96800.63;;;19.01;54.73
60228;BME280;46091;46.512;6.626;2023-04-30T10:44:22;96801.22;;;19.03;55.03
60228;BME280;46091;46.512;6.626;2023-04-30T10:46:27;96797.47;;;19.04;54.92
60228;BME280;46091;46.512;6.626;2023-04-30T10:48:33;96798.59;;;19.08;54.64
60228;BME280;46091;46.512;6.626;2023-04-30T10:50:40;96795.91;;;19.08;54.98
60228;BME280;46091;46.512;6.626;2023-04-30T10:52:46;96793.28;;;19.13;55.03
60228;BME280;46091;46.512;6.626;2023-04-30T10:54:49;96787.94;;;19.13;54.71
60228;BME280;46091;46.512;6.626;2023-04-30T10:56:52;96798.44;;;19.14;54.87
60228;BME280;46091;46.512;6.626;2023-04-30T10:59:00;96805.41;;;19.15;54.83